sensor_id;sensor_type;location;lat;lon;timestamp;P1;durP1;ratioP1;P2;durP2;ratioP2
19006;SDS011;9636;47.382;8.480;2023-10-09T00:01:02;4.65;;;2.72;;
19006;SDS011;9636;47.382;8.480;2023-10-09T00:03:34;3.97;;;2.50;;
19006;SDS011;9636;47.382;8.480;2023-10-09T00:06:03;5.00;;;2.90;;
19006;SDS011;9636;47.382;8.480;2023-10-09T00:08:30;4.05;;;2.78;;
19006;SDS011;9636;47.382;8.480;2023-10-09T00:10:58;4.30;;;2.60;;
19006;SDS011;9636;47.382;8.480;2023-10-09T00:13:40;4.05;;;2.60;;
19006;SDS011;9636;47.382;8.480;2023-10-09T00:16:14;4.07;;;2.80;;
19006;SDS011;9636;47.382;8.480;2023-10-09T00:18:48;4.45;;;2.60;;
19006;SDS011;9636;47.382;8.480;2023-10-09T00:21:15;4.93;;;2.50;;
19006;SDS011;9636;47.382;8.480;2023-10-09T00:23:45;3.85;;;2.50;;
19006;SDS011;9636;47.382;8.480;2023-10-09T00:26:17;3.97;;;2.63;;
19006;SDS011;9636;47.382;8.480;2023-10-09T00:28:47;5.57;;;2.78;;
19006;SDS011;9636;47.382;8.480;2023-10-09T00:31:16;3.88;;;2.13;;
19006;SDS011;9636;47.382;8.480;2023-10-09T00:33:52;4.72;;;2.70;;
19006;SDS011;9636;47.382;8.480;2023-10-09T00:36:20;3.47;;;2.35;;
19006;SDS011;9636;47.382;8.480;2023-10-09T00:38:53;5.05;;;2.50;;
19006;SDS011;9636;47.382;8.480;2023-10-09T00:41:22;5.43;;;2.50;;
19006;SDS011;9636;47.382;8.480;2023-10-09T00:43:52;5.13;;;2.75;;
19006;SDS011;9636;47.382;8.480;2023-10-09T00:46:24;4.95;;;2.55;;
19006;SDS011;9636;47.382;8.480;2023-10-09T00:48:54;3.67;;;2.40;;
19006;SDS011;9636;47.382;8.480;2023-10-09T00:51:22;4.30;;;2.67;;
19006;SDS011;9636;47.382;8.480;2023-10-09T00:53:52;4.85;;;2.45;;
19006;SDS011;9636;47.382;8.480;2023-10-09T00:56:22;4.13;;;2.58;;
19006;SDS011;9636;47.382;8.480;2023-10-09T00:59:05;4.38;;;2.80;;
19006;SDS011;9636;47.382;8.480;2023-10-09T01:01:39;4.57;;;2.38;;
19006;SDS011;9636;47.382;8.480;2023-10-09T01:04:13;3.30;;;2.33;;
19006;SDS011;9636;47.382;8.480;2023-10-09T01:06:42;3.97;;;2.63;;
19006;SDS011;9636;47.382;8.480;2023-10-09T01:09:10;5.90;;;2.60;;
19006;SDS011;9636;47.382;8.480;2023-10-09T01:11:39;4.15;;;2.60;;
19006;SDS011;9636;47.382;8.480;2023-10-09T01:14:29;3.40;;;2.55;;
19006;SDS011;9636;47.382;8.480;2023-10-09T01:17:01;5.75;;;2.58;;
19006;SDS011;9636;47.382;8.480;2023-10-09T01:19:31;5.35;;;2.47;;
19006;SDS011;9636;47.382;8.480;2023-10-09T01:21:59;5.63;;;2.60;;
19006;SDS011;9636;47.382;8.480;2023-10-09T01:24:30;4.13;;;2.60;;
19006;SDS011;9636;47.382;8.480;2023-10-09T01:27:03;4.50;;;2.50;;
19006;SDS011;9636;47.382;8.480;2023-10-09T01:29:40;5.97;;;2.70;;
19006;SDS011;9636;47.382;8.480;2023-10-09T01:32:08;5.35;;;2.60;;
19006;SDS011;9636;47.382;8.480;2023-10-09T01:34:41;3.38;;;2.53;;
19006;SDS011;9636;47.382;8.480;2023-10-09T01:37:10;3.72;;;2.20;;
19006;SDS011;9636;47.382;8.480;2023-10-09T01:39:44;3.80;;;2.25;;
19006;SDS011;9636;47.382;8.480;2023-10-09T01:42:13;5.65;;;2.50;;
19006;SDS011;9636;47.382;8.480;2023-10-09T01:44:49;4.25;;;2.60;;
19006;SDS011;9636;47.382;8.480;2023-10-09T01:47:16;5.30;;;2.63;;
19006;SDS011;9636;47.382;8.480;2023-10-09T01:49:43;4.00;;;2.35;;
19006;SDS011;9636;47.382;8.480;2023-10-09T01:52:14;4.47;;;2.42;;
19006;SDS011;9636;47.382;8.480;2023-10-09T01:54:42;3.28;;;2.30;;
19006;SDS011;9636;47.382;8.480;2023-10-09T01:57:14;4.90;;;2.20;;
19006;SDS011;9636;47.382;8.480;2023-10-09T01:59:47;4.85;;;2.85;;
19006;SDS011;9636;47.382;8.480;2023-10-09T02:02:15;2.72;;;2.28;;
19006;SDS011;9636;47.382;8.480;2023-10-09T02:04:52;4.05;;;2.05;;
19006;SDS011;9636;47.382;8.480;2023-10-09T02:07:21;3.67;;;2.30;;
19006;SDS011;9636;47.382;8.480;2023-10-09T02:09:52;4.22;;;2.38;;
19006;SDS011;9636;47.382;8.480;2023-10-09T02:12:21;3.30;;;2.27;;
19006;SDS011;9636;47.382;8.480;2023-10-09T02:14:49;4.50;;;2.40;;
19006;SDS011;9636;47.382;8.480;2023-10-09T02:17:19;4.40;;;2.45;;
19006;SDS011;9636;47.382;8.480;2023-10-09T02:19:50;3.95;;;2.20;;
19006;SDS011;9636;47.382;8.480;2023-10-09T02:22:17;5.03;;;2.25;;
19006;SDS011;9636;47.382;8.480;2023-10-09T02:24:44;5.28;;;2.50;;
19006;SDS011;9636;47.382;8.480;2023-10-09T02:27:24;5.10;;;2.50;;
19006;SDS011;9636;47.382;8.480;2023-10-09T02:30:12;4.27;;;2.47;;
19006;SDS011;9636;47.382;8.480;2023-10-09T02:32:43;2.90;;;2.10;;
19006;SDS011;9636;47.382;8.480;2023-10-09T02:35:13;4.47;;;2.50;;
19006;SDS011;9636;47.382;8.480;2023-10-09T02:38:01;3.87;;;2.40;;
19006;SDS011;9636;47.382;8.480;2023-10-09T02:40:31;4.20;;;2.30;;
19006;SDS011;9636;47.382;8.480;2023-10-09T02:43:07;3.27;;;2.20;;
19006;SDS011;9636;47.382;8.480;2023-10-09T02:45:38;3.60;;;2.33;;
19006;SDS011;9636;47.382;8.480;2023-10-09T02:48:15;6.37;;;2.40;;
19006;SDS011;9636;47.382;8.480;2023-10-09T02:50:44;4.07;;;2.38;;
19006;SDS011;9636;47.382;8.480;2023-10-09T02:53:11;5.38;;;2.40;;
19006;SDS011;9636;47.382;8.480;2023-10-09T02:55:43;3.42;;;1.98;;
19006;SDS011;9636;47.382;8.480;2023-10-09T02:58:28;3.37;;;2.07;;
19006;SDS011;9636;47.382;8.480;2023-10-09T03:00:57;4.13;;;2.40;;
19006;SDS011;9636;47.382;8.480;2023-10-09T03:03:24;3.90;;;2.27;;
19006;SDS011;9636;47.382;8.480;2023-10-09T03:05:52;2.83;;;1.97;;
19006;SDS011;9636;47.382;8.480;2023-10-09T03:08:18;3.70;;;2.00;;
19006;SDS011;9636;47.382;8.480;2023-10-09T03:10:45;3.80;;;2.20;;
19006;SDS011;9636;47.382;8.480;2023-10-09T03:13:13;3.07;;;2.00;;
19006;SDS011;9636;47.382;8.480;2023-10-09T03:15:46;3.53;;;2.20;;
19006;SDS011;9636;47.382;8.480;2023-10-09T03:18:13;3.23;;;1.90;;
19006;SDS011;9636;47.382;8.480;2023-10-09T03:20:40;3.50;;;2.20;;
19006;SDS011;9636;47.382;8.480;2023-10-09T03:23:09;2.83;;;2.10;;
19006;SDS011;9636;47.382;8.480;2023-10-09T03:25:39;3.80;;;2.17;;
19006;SDS011;9636;47.382;8.480;2023-10-09T03:28:10;2.90;;;2.20;;
19006;SDS011;9636;47.382;8.480;2023-10-09T03:30:40;4.00;;;2.30;;
19006;SDS011;9636;47.382;8.480;2023-10-09T03:33:13;3.90;;;1.93;;
19006;SDS011;9636;47.382;8.480;2023-10-09T03:35:40;5.37;;;2.33;;
19006;SDS011;9636;47.382;8.480;2023-10-09T03:38:08;3.80;;;2.27;;
19006;SDS011;9636;47.382;8.480;2023-10-09T03:40:40;3.67;;;2.27;;
19006;SDS011;9636;47.382;8.480;2023-10-09T03:43:08;4.00;;;2.13;;
19006;SDS011;9636;47.382;8.480;2023-10-09T03:45:36;5.97;;;2.13;;
19006;SDS011;9636;47.382;8.480;2023-10-09T03:48:04;4.90;;;2.17;;
19006;SDS011;9636;47.382;8.480;2023-10-09T03:50:42;3.23;;;2.23;;
19006;SDS011;9636;47.382;8.480;2023-10-09T03:53:10;3.43;;;2.00;;
19006;SDS011;9636;47.382;8.480;2023-10-09T03:55:38;4.70;;;2.03;;
19006;SDS011;9636;47.382;8.480;2023-10-09T03:58:05;4.03;;;2.27;;
19006;SDS011;9636;47.382;8.480;2023-10-09T04:00:32;4.57;;;2.40;;
19006;SDS011;9636;47.382;8.480;2023-10-09T04:03:09;3.20;;;2.07;;
19006;SDS011;9636;47.382;8.480;2023-10-09T04:05:39;4.10;;;2.20;;
19006;SDS011;9636;47.382;8.480;2023-10-09T04:08:08;2.60;;;2.03;;
19006;SDS011;9636;47.382;8.480;2023-10-09T04:10:41;3.77;;;1.87;;
19006;SDS011;9636;47.382;8.480;2023-10-09T04:13:17;2.87;;;2.20;;
19006;SDS011;9636;47.382;8.480;2023-10-09T04:15:48;4.60;;;2.27;;
19006;SDS011;9636;47.382;8.480;2023-10-09T04:18:17;3.10;;;1.90;;
19006;SDS011;9636;47.382;8.480;2023-10-09T04:20:47;3.10;;;2.10;;
19006;SDS011;9636;47.382;8.480;2023-10-09T04:23:35;3.17;;;2.23;;
19006;SDS011;9636;47.382;8.480;2023-10-09T04:26:22;3.80;;;1.93;;
19006;SDS011;9636;47.382;8.480;2023-10-09T04:28:50;4.77;;;2.13;;
19006;SDS011;9636;47.382;8.480;2023-10-09T04:31:18;3.27;;;2.00;;
19006;SDS011;9636;47.382;8.480;2023-10-09T04:33:47;3.80;;;2.00;;
19006;SDS011;9636;47.382;8.480;2023-10-09T04:36:29;2.90;;;1.87;;
19006;SDS011;9636;47.382;8.480;2023-10-09T04:39:11;4.60;;;2.17;;
19006;SDS011;9636;47.382;8.480;2023-10-09T04:42:00;3.60;;;2.03;;
19006;SDS011;9636;47.382;8.480;2023-10-09T04:45:01;5.23;;;2.30;;
19006;SDS011;9636;47.382;8.480;2023-10-09T04:47:46;4.37;;;2.13;;
19006;SDS011;9636;47.382;8.480;2023-10-09T04:50:23;3.50;;;2.27;;
19006;SDS011;9636;47.382;8.480;2023-10-09T04:53:03;3.47;;;1.90;;
19006;SDS011;9636;47.382;8.480;2023-10-09T04:55:47;3.13;;;1.90;;
19006;SDS011;9636;47.382;8.480;2023-10-09T04:58:20;3.70;;;1.83;;
19006;SDS011;9636;47.382;8.480;2023-10-09T05:00:50;3.67;;;1.93;;
19006;SDS011;9636;47.382;8.480;2023-10-09T05:03:38;4.57;;;1.87;;
19006;SDS011;9636;47.382;8.480;2023-10-09T05:06:11;3.67;;;2.00;;
19006;SDS011;9636;47.382;8.480;2023-10-09T05:08:48;3.97;;;2.10;;
19006;SDS011;9636;47.382;8.480;2023-10-09T05:11:21;5.27;;;2.10;;
19006;SDS011;9636;47.382;8.480;2023-10-09T05:14:18;3.00;;;1.83;;
19006;SDS011;9636;47.382;8.480;2023-10-09T05:16:52;3.23;;;2.20;;
19006;SDS011;9636;47.382;8.480;2023-10-09T05:19:26;3.73;;;2.30;;
19006;SDS011;9636;47.382;8.480;2023-10-09T05:22:07;5.67;;;2.13;;
19006;SDS011;9636;47.382;8.480;2023-10-09T05:24:55;3.23;;;1.90;;
19006;SDS011;9636;47.382;8.480;2023-10-09T05:27:22;5.47;;;2.03;;
19006;SDS011;9636;47.382;8.480;2023-10-09T05:30:10;2.77;;;1.90;;
19006;SDS011;9636;47.382;8.480;2023-10-09T05:32:50;3.47;;;1.87;;
19006;SDS011;9636;47.382;8.480;2023-10-09T05:35:20;2.57;;;1.80;;
19006;SDS011;9636;47.382;8.480;2023-10-09T05:38:04;3.67;;;1.97;;
19006;SDS011;9636;47.382;8.480;2023-10-09T05:40:49;2.70;;;1.90;;
19006;SDS011;9636;47.382;8.480;2023-10-09T05:43:29;3.30;;;2.00;;
19006;SDS011;9636;47.382;8.480;2023-10-09T05:46:13;3.80;;;2.00;;
19006;SDS011;9636;47.382;8.480;2023-10-09T05:48:40;4.37;;;2.23;;
19006;SDS011;9636;47.382;8.480;2023-10-09T05:51:20;4.00;;;2.00;;
19006;SDS011;9636;47.382;8.480;2023-10-09T05:54:16;4.03;;;2.20;;
19006;SDS011;9636;47.382;8.480;2023-10-09T05:57:01;3.37;;;2.00;;
19006;SDS011;9636;47.382;8.480;2023-10-09T05:59:54;2.53;;;1.97;;
19006;SDS011;9636;47.382;8.480;2023-10-09T06:02:38;2.53;;;1.93;;
19006;SDS011;9636;47.382;8.480;2023-10-09T06:05:25;3.97;;;1.73;;
19006;SDS011;9636;47.382;8.480;2023-10-09T06:08:27;3.93;;;1.77;;
19006;SDS011;9636;47.382;8.480;2023-10-09T06:11:15;3.07;;;1.90;;
19006;SDS011;9636;47.382;8.480;2023-10-09T06:14:01;4.00;;;2.20;;
19006;SDS011;9636;47.382;8.480;2023-10-09T06:16:37;4.17;;;1.83;;
19006;SDS011;9636;47.382;8.480;2023-10-09T06:19:06;3.67;;;2.07;;
19006;SDS011;9636;47.382;8.480;2023-10-09T06:21:38;3.27;;;2.03;;
19006;SDS011;9636;47.382;8.480;2023-10-09T06:24:06;4.03;;;1.90;;
19006;SDS011;9636;47.382;8.480;2023-10-09T06:26:39;3.47;;;2.00;;
19006;SDS011;9636;47.382;8.480;2023-10-09T06:29:17;4.03;;;1.83;;
19006;SDS011;9636;47.382;8.480;2023-10-09T06:32:00;2.53;;;1.80;;
19006;SDS011;9636;47.382;8.480;2023-10-09T06:34:56;2.40;;;1.70;;
19006;SDS011;9636;47.382;8.480;2023-10-09T06:37:41;6.67;;;1.90;;
19006;SDS011;9636;47.382;8.480;2023-10-09T06:40:38;3.37;;;2.07;;
19006;SDS011;9636;47.382;8.480;2023-10-09T06:43:23;3.23;;;2.10;;
19006;SDS011;9636;47.382;8.480;2023-10-09T06:45:53;4.10;;;2.20;;
19006;SDS011;9636;47.382;8.480;2023-10-09T06:48:23;3.33;;;1.80;;
19006;SDS011;9636;47.382;8.480;2023-10-09T06:51:22;2.80;;;2.03;;
19006;SDS011;9636;47.382;8.480;2023-10-09T06:54:06;3.67;;;1.70;;
19006;SDS011;9636;47.382;8.480;2023-10-09T06:56:34;5.00;;;1.98;;
19006;SDS011;9636;47.382;8.480;2023-10-09T06:59:19;3.08;;;1.80;;
19006;SDS011;9636;47.382;8.480;2023-10-09T07:01:49;3.72;;;2.00;;
19006;SDS011;9636;47.382;8.480;2023-10-09T07:04:34;3.10;;;1.73;;
19006;SDS011;9636;47.382;8.480;2023-10-09T07:07:14;2.28;;;1.75;;
19006;SDS011;9636;47.382;8.480;2023-10-09T07:09:41;3.08;;;2.03;;
19006;SDS011;9636;47.382;8.480;2023-10-09T07:12:28;2.42;;;1.70;;
19006;SDS011;9636;47.382;8.480;2023-10-09T07:14:58;2.40;;;1.90;;
19006;SDS011;9636;47.382;8.480;2023-10-09T07:17:49;3.38;;;1.70;;
19006;SDS011;9636;47.382;8.480;2023-10-09T07:20:17;3.47;;;1.90;;
19006;SDS011;9636;47.382;8.480;2023-10-09T07:22:59;3.75;;;2.00;;
19006;SDS011;9636;47.382;8.480;2023-10-09T07:25:38;2.90;;;1.77;;
19006;SDS011;9636;47.382;8.480;2023-10-09T07:28:20;2.90;;;1.83;;
19006;SDS011;9636;47.382;8.480;2023-10-09T07:31:07;2.75;;;1.80;;
19006;SDS011;9636;47.382;8.480;2023-10-09T07:33:49;2.17;;;1.63;;
19006;SDS011;9636;47.382;8.480;2023-10-09T07:36:21;3.08;;;1.80;;
19006;SDS011;9636;47.382;8.480;2023-10-09T07:41:31;3.47;;;1.80;;
19006;SDS011;9636;47.382;8.480;2023-10-09T07:44:09;2.72;;;1.50;;
19006;SDS011;9636;47.382;8.480;2023-10-09T07:46:59;2.92;;;1.70;;
19006;SDS011;9636;47.382;8.480;2023-10-09T07:49:43;3.63;;;2.00;;
19006;SDS011;9636;47.382;8.480;2023-10-09T07:52:14;2.65;;;1.52;;
19006;SDS011;9636;47.382;8.480;2023-10-09T07:54:43;2.53;;;1.58;;
19006;SDS011;9636;47.382;8.480;2023-10-09T07:57:18;2.42;;;1.85;;
19006;SDS011;9636;47.382;8.480;2023-10-09T07:59:51;3.17;;;1.77;;
19006;SDS011;9636;47.382;8.480;2023-10-09T08:02:26;2.45;;;1.60;;
19006;SDS011;9636;47.382;8.480;2023-10-09T08:04:58;2.45;;;1.70;;
19006;SDS011;9636;47.382;8.480;2023-10-09T08:07:29;2.03;;;1.65;;
19006;SDS011;9636;47.382;8.480;2023-10-09T08:10:02;2.50;;;1.80;;
19006;SDS011;9636;47.382;8.480;2023-10-09T08:12:47;2.75;;;1.77;;
19006;SDS011;9636;47.382;8.480;2023-10-09T08:15:46;2.58;;;1.48;;
19006;SDS011;9636;47.382;8.480;2023-10-09T08:18:17;2.17;;;1.65;;
19006;SDS011;9636;47.382;8.480;2023-10-09T08:20:53;2.03;;;1.48;;
19006;SDS011;9636;47.382;8.480;2023-10-09T08:26:19;2.13;;;1.50;;
19006;SDS011;9636;47.382;8.480;2023-10-09T08:31:39;3.35;;;1.42;;
19006;SDS011;9636;47.382;8.480;2023-10-09T08:34:11;1.92;;;1.50;;
19006;SDS011;9636;47.382;8.480;2023-10-09T08:36:49;2.03;;;1.40;;
19006;SDS011;9636;47.382;8.480;2023-10-09T08:39:17;3.13;;;1.77;;
19006;SDS011;9636;47.382;8.480;2023-10-09T08:41:51;2.60;;;1.60;;
19006;SDS011;9636;47.382;8.480;2023-10-09T08:44:19;2.25;;;1.80;;
19006;SDS011;9636;47.382;8.480;2023-10-09T08:46:50;2.45;;;1.50;;
19006;SDS011;9636;47.382;8.480;2023-10-09T08:49:17;1.75;;;1.50;;
19006;SDS011;9636;47.382;8.480;2023-10-09T08:51:46;1.90;;;1.50;;
19006;SDS011;9636;47.382;8.480;2023-10-09T08:54:13;2.53;;;1.55;;
19006;SDS011;9636;47.382;8.480;2023-10-09T08:56:41;3.00;;;1.50;;
19006;SDS011;9636;47.382;8.480;2023-10-09T08:59:16;2.75;;;1.80;;
19006;SDS011;9636;47.382;8.480;2023-10-09T09:01:44;3.47;;;1.50;;
19006;SDS011;9636;47.382;8.480;2023-10-09T09:07:03;2.17;;;1.70;;
19006;SDS011;9636;47.382;8.480;2023-10-09T09:09:30;2.20;;;1.52;;
19006;SDS011;9636;47.382;8.480;2023-10-09T09:11:59;1.98;;;1.50;;
19006;SDS011;9636;47.382;8.480;2023-10-09T09:14:36;2.72;;;1.58;;
19006;SDS011;9636;47.382;8.480;2023-10-09T09:17:04;1.40;;;1.30;;
19006;SDS011;9636;47.382;8.480;2023-10-09T09:19:36;2.47;;;1.50;;
19006;SDS011;9636;47.382;8.480;2023-10-09T09:22:04;1.50;;;1.40;;
19006;SDS011;9636;47.382;8.480;2023-10-09T09:24:38;1.48;;;1.30;;
19006;SDS011;9636;47.382;8.480;2023-10-09T09:27:13;1.38;;;1.23;;
19006;SDS011;9636;47.382;8.480;2023-10-09T09:29:44;2.53;;;1.60;;
19006;SDS011;9636;47.382;8.480;2023-10-09T09:32:25;1.67;;;1.50;;
19006;SDS011;9636;47.382;8.480;2023-10-09T09:34:55;2.28;;;1.60;;
19006;SDS011;9636;47.382;8.480;2023-10-09T09:37:25;1.75;;;1.55;;
19006;SDS011;9636;47.382;8.480;2023-10-09T09:39:55;30.52;;;7.95;;
19006;SDS011;9636;47.382;8.480;2023-10-09T09:42:25;44.15;;;11.23;;
19006;SDS011;9636;47.382;8.480;2023-10-09T09:44:57;31.17;;;9.30;;
19006;SDS011;9636;47.382;8.480;2023-10-09T09:47:27;30.35;;;8.88;;
19006;SDS011;9636;47.382;8.480;2023-10-09T09:49:54;35.60;;;9.52;;
19006;SDS011;9636;47.382;8.480;2023-10-09T09:52:26;34.45;;;8.10;;
19006;SDS011;9636;47.382;8.480;2023-10-09T09:54:55;24.67;;;7.88;;
19006;SDS011;9636;47.382;8.480;2023-10-09T09:57:23;33.15;;;7.70;;
19006;SDS011;9636;47.382;8.480;2023-10-09T09:59:54;25.25;;;6.57;;
19006;SDS011;9636;47.382;8.480;2023-10-09T10:02:24;24.35;;;6.43;;
19006;SDS011;9636;47.382;8.480;2023-10-09T10:05:02;22.42;;;6.10;;
19006;SDS011;9636;47.382;8.480;2023-10-09T10:07:32;21.52;;;5.93;;
19006;SDS011;9636;47.382;8.480;2023-10-09T10:12:59;17.80;;;5.05;;
19006;SDS011;9636;47.382;8.480;2023-10-09T10:18:25;17.30;;;4.80;;
19006;SDS011;9636;47.382;8.480;2023-10-09T10:21:09;19.42;;;4.88;;
19006;SDS011;9636;47.382;8.480;2023-10-09T10:23:41;16.10;;;4.40;;
19006;SDS011;9636;47.382;8.480;2023-10-09T10:26:19;22.17;;;4.68;;
19006;SDS011;9636;47.382;8.480;2023-10-09T10:31:54;17.15;;;4.53;;
19006;SDS011;9636;47.382;8.480;2023-10-09T10:34:26;19.23;;;4.47;;
19006;SDS011;9636;47.382;8.480;2023-10-09T10:37:21;20.00;;;4.82;;
19006;SDS011;9636;47.382;8.480;2023-10-09T10:40:03;18.20;;;4.43;;
19006;SDS011;9636;47.382;8.480;2023-10-09T10:42:46;23.13;;;4.07;;
19006;SDS011;9636;47.382;8.480;2023-10-09T10:45:23;17.13;;;4.28;;
19006;SDS011;9636;47.382;8.480;2023-10-09T10:48:00;18.13;;;5.10;;
19006;SDS011;9636;47.382;8.480;2023-10-09T10:50:34;19.02;;;4.78;;
19006;SDS011;9636;47.382;8.480;2023-10-09T10:53:08;17.48;;;4.75;;
19006;SDS011;9636;47.382;8.480;2023-10-09T10:55:53;16.45;;;4.60;;
19006;SDS011;9636;47.382;8.480;2023-10-09T10:58:21;14.63;;;4.80;;
19006;SDS011;9636;47.382;8.480;2023-10-09T11:01:00;17.85;;;5.20;;
19006;SDS011;9636;47.382;8.480;2023-10-09T11:03:37;13.75;;;4.07;;
19006;SDS011;9636;47.382;8.480;2023-10-09T11:06:30;21.65;;;4.85;;
19006;SDS011;9636;47.382;8.480;2023-10-09T11:09:07;18.83;;;4.80;;
19006;SDS011;9636;47.382;8.480;2023-10-09T11:11:47;16.98;;;4.60;;
19006;SDS011;9636;47.382;8.480;2023-10-09T11:14:15;17.50;;;4.43;;
19006;SDS011;9636;47.382;8.480;2023-10-09T11:16:48;19.10;;;4.90;;
19006;SDS011;9636;47.382;8.480;2023-10-09T11:19:18;22.52;;;5.05;;
19006;SDS011;9636;47.382;8.480;2023-10-09T11:21:55;15.98;;;4.82;;
19006;SDS011;9636;47.382;8.480;2023-10-09T11:24:46;19.38;;;5.07;;
19006;SDS011;9636;47.382;8.480;2023-10-09T11:27:25;17.17;;;4.50;;
19006;SDS011;9636;47.382;8.480;2023-10-09T11:29:57;16.10;;;4.55;;
19006;SDS011;9636;47.382;8.480;2023-10-09T11:32:30;20.17;;;4.78;;
19006;SDS011;9636;47.382;8.480;2023-10-09T11:35:09;13.88;;;4.28;;
19006;SDS011;9636;47.382;8.480;2023-10-09T11:37:37;15.50;;;4.55;;
19006;SDS011;9636;47.382;8.480;2023-10-09T11:40:07;22.27;;;4.20;;
19006;SDS011;9636;47.382;8.480;2023-10-09T11:42:55;18.50;;;4.57;;
19006;SDS011;9636;47.382;8.480;2023-10-09T11:45:28;15.27;;;4.25;;
19006;SDS011;9636;47.382;8.480;2023-10-09T11:48:15;15.50;;;4.50;;
19006;SDS011;9636;47.382;8.480;2023-10-09T11:50:47;18.58;;;4.97;;
19006;SDS011;9636;47.382;8.480;2023-10-09T11:53:20;15.07;;;4.38;;
19006;SDS011;9636;47.382;8.480;2023-10-09T11:55:58;20.85;;;4.80;;
19006;SDS011;9636;47.382;8.480;2023-10-09T11:58:26;13.35;;;4.22;;
19006;SDS011;9636;47.382;8.480;2023-10-09T12:00:53;16.92;;;4.18;;
19006;SDS011;9636;47.382;8.480;2023-10-09T12:03:24;22.35;;;4.75;;
19006;SDS011;9636;47.382;8.480;2023-10-09T12:05:53;14.35;;;4.72;;
19006;SDS011;9636;47.382;8.480;2023-10-09T12:08:23;17.98;;;4.65;;
19006;SDS011;9636;47.382;8.480;2023-10-09T12:10:52;16.70;;;4.47;;
19006;SDS011;9636;47.382;8.480;2023-10-09T12:13:22;20.73;;;5.10;;
19006;SDS011;9636;47.382;8.480;2023-10-09T12:15:49;15.95;;;4.38;;
19006;SDS011;9636;47.382;8.480;2023-10-09T12:18:17;21.27;;;4.90;;
19006;SDS011;9636;47.382;8.480;2023-10-09T12:20:45;15.88;;;4.63;;
19006;SDS011;9636;47.382;8.480;2023-10-09T12:23:16;17.05;;;5.03;;
19006;SDS011;9636;47.382;8.480;2023-10-09T12:25:44;20.33;;;5.95;;
19006;SDS011;9636;47.382;8.480;2023-10-09T12:28:12;17.50;;;5.78;;
19006;SDS011;9636;47.382;8.480;2023-10-09T12:30:39;16.80;;;5.20;;
19006;SDS011;9636;47.382;8.480;2023-10-09T12:33:08;21.80;;;5.88;;
19006;SDS011;9636;47.382;8.480;2023-10-09T12:35:38;19.23;;;5.93;;
19006;SDS011;9636;47.382;8.480;2023-10-09T12:38:05;22.00;;;5.50;;
19006;SDS011;9636;47.382;8.480;2023-10-09T12:40:35;20.00;;;5.43;;
19006;SDS011;9636;47.382;8.480;2023-10-09T12:43:06;18.50;;;5.18;;
19006;SDS011;9636;47.382;8.480;2023-10-09T12:45:40;20.55;;;4.93;;
19006;SDS011;9636;47.382;8.480;2023-10-09T12:48:07;23.00;;;6.80;;
19006;SDS011;9636;47.382;8.480;2023-10-09T12:50:35;21.75;;;7.32;;
19006;SDS011;9636;47.382;8.480;2023-10-09T12:53:06;20.67;;;6.05;;
19006;SDS011;9636;47.382;8.480;2023-10-09T12:55:34;18.00;;;5.30;;
19006;SDS011;9636;47.382;8.480;2023-10-09T12:58:07;22.05;;;5.93;;
19006;SDS011;9636;47.382;8.480;2023-10-09T13:00:35;20.65;;;5.10;;
19006;SDS011;9636;47.382;8.480;2023-10-09T13:03:08;26.08;;;5.28;;
19006;SDS011;9636;47.382;8.480;2023-10-09T13:05:43;18.25;;;4.82;;
19006;SDS011;9636;47.382;8.480;2023-10-09T13:08:17;20.63;;;5.10;;
19006;SDS011;9636;47.382;8.480;2023-10-09T13:10:46;16.80;;;4.43;;
19006;SDS011;9636;47.382;8.480;2023-10-09T13:13:16;19.13;;;5.00;;
19006;SDS011;9636;47.382;8.480;2023-10-09T13:15:42;17.27;;;4.10;;
19006;SDS011;9636;47.382;8.480;2023-10-09T13:18:09;20.40;;;5.07;;
19006;SDS011;9636;47.382;8.480;2023-10-09T13:20:37;25.65;;;4.68;;
19006;SDS011;9636;47.382;8.480;2023-10-09T13:23:04;25.50;;;5.43;;
19006;SDS011;9636;47.382;8.480;2023-10-09T13:25:33;19.05;;;5.57;;
19006;SDS011;9636;47.382;8.480;2023-10-09T13:28:04;25.23;;;6.20;;
19006;SDS011;9636;47.382;8.480;2023-10-09T13:30:37;21.45;;;5.93;;
19006;SDS011;9636;47.382;8.480;2023-10-09T13:33:14;18.80;;;5.22;;
19006;SDS011;9636;47.382;8.480;2023-10-09T13:35:42;18.45;;;5.10;;
19006;SDS011;9636;47.382;8.480;2023-10-09T13:38:15;21.63;;;5.20;;
19006;SDS011;9636;47.382;8.480;2023-10-09T13:40:42;22.17;;;6.55;;
19006;SDS011;9636;47.382;8.480;2023-10-09T13:43:09;21.40;;;5.30;;
19006;SDS011;9636;47.382;8.480;2023-10-09T13:45:42;17.33;;;5.15;;
19006;SDS011;9636;47.382;8.480;2023-10-09T13:48:15;19.38;;;5.28;;
19006;SDS011;9636;47.382;8.480;2023-10-09T13:50:46;16.23;;;4.97;;
19006;SDS011;9636;47.382;8.480;2023-10-09T13:53:13;17.73;;;5.20;;
19006;SDS011;9636;47.382;8.480;2023-10-09T13:55:40;18.08;;;4.80;;
19006;SDS011;9636;47.382;8.480;2023-10-09T13:58:08;21.58;;;5.20;;
19006;SDS011;9636;47.382;8.480;2023-10-09T14:00:38;16.75;;;4.97;;
19006;SDS011;9636;47.382;8.480;2023-10-09T14:03:09;18.75;;;5.20;;
19006;SDS011;9636;47.382;8.480;2023-10-09T14:05:38;26.50;;;5.97;;
19006;SDS011;9636;47.382;8.480;2023-10-09T14:08:17;15.98;;;5.32;;
19006;SDS011;9636;47.382;8.480;2023-10-09T14:10:47;21.27;;;5.13;;
19006;SDS011;9636;47.382;8.480;2023-10-09T14:13:13;28.40;;;5.40;;
19006;SDS011;9636;47.382;8.480;2023-10-09T14:15:41;19.67;;;5.20;;
19006;SDS011;9636;47.382;8.480;2023-10-09T14:18:10;15.90;;;5.10;;
19006;SDS011;9636;47.382;8.480;2023-10-09T14:20:37;15.00;;;4.80;;
19006;SDS011;9636;47.382;8.480;2023-10-09T14:23:06;15.25;;;4.85;;
19006;SDS011;9636;47.382;8.480;2023-10-09T14:25:37;18.10;;;4.80;;
19006;SDS011;9636;47.382;8.480;2023-10-09T14:28:05;21.67;;;5.68;;
19006;SDS011;9636;47.382;8.480;2023-10-09T14:30:33;22.33;;;5.55;;
19006;SDS011;9636;47.382;8.480;2023-10-09T14:33:07;17.58;;;5.07;;
19006;SDS011;9636;47.382;8.480;2023-10-09T14:35:39;11.15;;;4.78;;
19006;SDS011;9636;47.382;8.480;2023-10-09T14:38:07;22.70;;;5.30;;
19006;SDS011;9636;47.382;8.480;2023-10-09T14:40:40;17.50;;;4.68;;
19006;SDS011;9636;47.382;8.480;2023-10-09T14:43:07;14.38;;;4.63;;
19006;SDS011;9636;47.382;8.480;2023-10-09T14:45:44;15.18;;;4.63;;
19006;SDS011;9636;47.382;8.480;2023-10-09T14:48:14;19.33;;;5.03;;
19006;SDS011;9636;47.382;8.480;2023-10-09T14:50:46;27.05;;;5.43;;
19006;SDS011;9636;47.382;8.480;2023-10-09T14:53:14;21.45;;;4.90;;
19006;SDS011;9636;47.382;8.480;2023-10-09T14:55:42;17.88;;;4.72;;
19006;SDS011;9636;47.382;8.480;2023-10-09T14:58:10;18.05;;;4.88;;
19006;SDS011;9636;47.382;8.480;2023-10-09T15:00:37;23.20;;;5.30;;
19006;SDS011;9636;47.382;8.480;2023-10-09T15:03:11;19.20;;;4.95;;
19006;SDS011;9636;47.382;8.480;2023-10-09T15:05:40;25.23;;;5.40;;
19006;SDS011;9636;47.382;8.480;2023-10-09T15:08:08;24.75;;;5.35;;
19006;SDS011;9636;47.382;8.480;2023-10-09T15:10:36;20.55;;;4.85;;
19006;SDS011;9636;47.382;8.480;2023-10-09T15:13:10;29.95;;;5.65;;
19006;SDS011;9636;47.382;8.480;2023-10-09T15:15:40;22.50;;;5.30;;
19006;SDS011;9636;47.382;8.480;2023-10-09T15:18:07;22.25;;;4.88;;
19006;SDS011;9636;47.382;8.480;2023-10-09T15:20:34;22.80;;;5.25;;
19006;SDS011;9636;47.382;8.480;2023-10-09T15:23:03;21.08;;;5.25;;
19006;SDS011;9636;47.382;8.480;2023-10-09T15:25:30;17.10;;;4.97;;
19006;SDS011;9636;47.382;8.480;2023-10-09T15:27:59;22.35;;;5.68;;
19006;SDS011;9636;47.382;8.480;2023-10-09T15:30:25;20.38;;;5.80;;
19006;SDS011;9636;47.382;8.480;2023-10-09T15:32:53;18.27;;;5.13;;
19006;SDS011;9636;47.382;8.480;2023-10-09T15:35:21;21.05;;;4.93;;
19006;SDS011;9636;47.382;8.480;2023-10-09T15:37:48;22.42;;;5.20;;
19006;SDS011;9636;47.382;8.480;2023-10-09T15:40:18;18.00;;;4.68;;
19006;SDS011;9636;47.382;8.480;2023-10-09T15:42:49;16.00;;;4.90;;
19006;SDS011;9636;47.382;8.480;2023-10-09T15:45:21;17.45;;;5.30;;
19006;SDS011;9636;47.382;8.480;2023-10-09T15:47:48;15.55;;;4.65;;
19006;SDS011;9636;47.382;8.480;2023-10-09T15:50:16;16.55;;;4.28;;
19006;SDS011;9636;47.382;8.480;2023-10-09T15:52:44;17.23;;;4.82;;